createdAt,value
2023-01-21T00:00:12.508Z,31.13
2023-01-21T00:02:32.513Z,29.63
2023-01-21T00:04:52.323Z,28.55
2023-01-21T00:07:12.434Z,26.33
2023-01-21T00:09:32.847Z,22.98
2023-01-21T00:11:52.751Z,20.88
2023-01-21T00:14:12.623Z,24.65
2023-01-21T00:16:32.643Z,25.70
2023-01-21T00:18:52.359Z,27.90
2023-01-21T00:21:12.488Z,27.60
2023-01-21T00:23:32.640Z,26.60
2023-01-21T00:26:05.114Z,27.65
2023-01-21T00:28:31.748Z,28.48
2023-01-21T00:30:55.645Z,27.98
2023-01-21T00:33:15.294Z,23.40
2023-01-21T00:35:34.795Z,28.08
2023-01-21T00:37:54.692Z,32.15
2023-01-21T00:40:15.021Z,29.77
2023-01-21T00:42:34.708Z,27.67
2023-01-21T00:44:56.754Z,22.08
2023-01-21T00:47:16.270Z,19.40
2023-01-21T00:49:35.891Z,10.43
2023-01-21T00:51:55.423Z,13.93
2023-01-21T00:54:15.042Z,15.63
2023-01-21T00:56:35.263Z,20.02
2023-01-21T00:58:55.361Z,21.77
2023-01-21T01:01:20.290Z,19.90
2023-01-21T01:03:41.513Z,21.40
2023-01-21T01:06:11.104Z,16.65
2023-01-21T01:08:31.483Z,18.73
2023-01-21T01:10:53.970Z,25.33
2023-01-21T01:13:14.022Z,25.42
2023-01-21T01:15:34.566Z,23.58
2023-01-21T01:17:54.532Z,28.70
2023-01-21T01:20:15.100Z,23.60
2023-01-21T01:22:34.993Z,26.08
2023-01-21T01:24:55.134Z,25.50
2023-01-21T01:27:15.066Z,26.65
2023-01-21T01:29:34.943Z,24.38
2023-01-21T01:31:54.869Z,23.05
2023-01-21T01:34:15.111Z,26.17
2023-01-21T01:36:34.943Z,25.95
2023-01-21T01:38:55.631Z,24.40
2023-01-21T01:41:22.096Z,24.52
2023-01-21T01:43:53.322Z,27.38
2023-01-21T01:46:13.281Z,26.20
2023-01-21T01:48:32.830Z,25.92
2023-01-21T01:50:56.628Z,26.58
2023-01-21T01:53:18.877Z,26.48
2023-01-21T01:55:40.037Z,28.83
2023-01-21T01:58:03.182Z,29.45
2023-01-21T02:00:25.113Z,31.02
2023-01-21T02:03:05.244Z,27.42
2023-01-21T02:05:24.973Z,28.23
2023-01-21T02:07:45.575Z,28.85
2023-01-21T02:10:10.281Z,27.88
2023-01-21T02:12:30.123Z,30.35
2023-01-21T02:14:50.176Z,30.83
2023-01-21T02:17:13.739Z,31.90
2023-01-21T02:19:55.465Z,30.88
2023-01-21T02:22:42.732Z,29.33
2023-01-21T02:25:15.816Z,28.60
2023-01-21T02:27:41.667Z,27.92
2023-01-21T02:30:14.011Z,26.05
2023-01-21T02:33:12.848Z,30.63
2023-01-21T02:35:42.205Z,28.08
2023-01-21T02:38:40.027Z,27.70
2023-01-21T02:41:09.033Z,25.00
2023-01-21T02:44:12.995Z,28.52
2023-01-21T02:46:46.793Z,28.85
2023-01-21T02:49:14.530Z,27.30
2023-01-21T02:51:35.154Z,25.63
2023-01-21T02:53:55.033Z,27.60
2023-01-21T02:56:18.925Z,29.15
2023-01-21T02:58:44.629Z,29.50
2023-01-21T03:01:27.718Z,27.67
2023-01-21T03:03:56.267Z,28.08
2023-01-21T03:06:34.762Z,28.92
2023-01-21T03:09:13.358Z,27.65
2023-01-21T03:11:33.610Z,28.60
2023-01-21T03:14:26.801Z,28.40
2023-01-21T03:16:56.682Z,29.90
2023-01-21T03:19:19.655Z,27.98
2023-01-21T03:24:01.140Z,27.33
2023-01-21T03:26:31.587Z,28.23
2023-01-21T03:28:55.220Z,29.08
2023-01-21T03:33:46.718Z,27.52
2023-01-21T03:36:15.738Z,25.17
2023-01-21T03:38:42.978Z,29.80
2023-01-21T03:41:32.929Z,30.35
2023-01-21T03:43:52.641Z,32.83
2023-01-21T03:46:33.279Z,29.83
2023-01-21T03:49:01.979Z,29.50
2023-01-21T03:51:26.772Z,31.00
2023-01-21T03:53:58.107Z,27.60
2023-01-21T03:56:17.753Z,23.75
2023-01-21T03:58:37.672Z,25.65
2023-01-21T04:00:57.765Z,26.25
2023-01-21T04:03:17.944Z,25.83
2023-01-21T04:05:38.081Z,24.88
2023-01-21T04:07:58.205Z,22.23
2023-01-21T04:10:18.535Z,23.45
2023-01-21T04:12:38.476Z,26.25
2023-01-21T04:14:58.216Z,26.85
2023-01-21T04:17:18.501Z,28.55
2023-01-21T04:19:38.489Z,30.27
2023-01-21T04:21:58.387Z,27.98
2023-01-21T04:24:18.566Z,29.05
2023-01-21T04:26:38.793Z,29.35
2023-01-21T04:28:58.834Z,27.88
2023-01-21T04:31:18.410Z,26.45
2023-01-21T04:33:38.319Z,22.70
2023-01-21T04:35:59.185Z,24.60
2023-01-21T04:38:19.278Z,28.25
2023-01-21T04:40:39.104Z,25.23
2023-01-21T04:42:59.080Z,25.17
2023-01-21T04:45:19.412Z,23.65
2023-01-21T04:47:43.295Z,26.08
2023-01-21T04:50:04.426Z,25.67
2023-01-21T04:52:24.196Z,27.60
2023-01-21T04:54:44.022Z,23.63
2023-01-21T04:57:03.726Z,25.20
2023-01-21T04:59:23.259Z,24.50
2023-01-21T05:01:43.181Z,24.13
2023-01-21T05:04:02.865Z,25.17
2023-01-21T05:06:23.064Z,23.65
2023-01-21T05:08:42.965Z,28.73
2023-01-21T05:11:02.622Z,28.05
2023-01-21T05:13:22.393Z,26.15
2023-01-21T05:15:42.199Z,27.60
2023-01-21T05:18:02.482Z,28.02
2023-01-21T05:20:22.965Z,27.80
2023-01-21T05:22:49.612Z,29.52
2023-01-21T05:25:09.755Z,26.65
2023-01-21T05:27:29.627Z,25.90
2023-01-21T05:29:49.824Z,27.00
2023-01-21T05:32:09.807Z,30.05
2023-01-21T05:34:29.780Z,25.40
2023-01-21T05:36:50.006Z,25.65
2023-01-21T05:39:09.915Z,26.95
2023-01-21T05:41:30.473Z,27.63
2023-01-21T05:43:50.276Z,30.17
2023-01-21T05:46:10.085Z,26.60
2023-01-21T05:48:31.225Z,29.35
2023-01-21T05:50:51.446Z,28.63
2023-01-21T05:53:11.559Z,27.77
2023-01-21T05:55:32.305Z,26.00
2023-01-21T05:57:52.281Z,27.92
2023-01-21T06:00:13.112Z,29.58
2023-01-21T06:02:33.130Z,32.28
2023-01-21T06:04:53.459Z,28.50
2023-01-21T06:07:13.384Z,29.38
2023-01-21T06:09:33.087Z,25.88
2023-01-21T06:11:52.715Z,24.38
2023-01-21T06:14:13.054Z,24.95
2023-01-21T06:16:32.666Z,15.30
2023-01-21T06:18:52.288Z,21.35
2023-01-21T06:21:12.638Z,16.08
2023-01-21T06:23:32.721Z,21.15
2023-01-21T06:25:52.827Z,12.15
2023-01-21T06:28:13.116Z,21.33
2023-01-21T06:30:32.825Z,15.07
2023-01-21T06:32:52.734Z,19.77
2023-01-21T06:35:12.299Z,22.95
2023-01-21T06:37:32.025Z,23.33
2023-01-21T06:39:51.677Z,23.83
2023-01-21T06:42:11.282Z,29.60
2023-01-21T06:44:30.900Z,23.70
2023-01-21T06:47:00.640Z,25.52
2023-01-21T06:49:21.149Z,28.67
2023-01-21T06:51:40.897Z,28.88
2023-01-21T06:54:01.063Z,27.80
2023-01-21T06:56:21.478Z,26.60
2023-01-21T06:58:41.301Z,22.80
2023-01-21T07:01:00.867Z,23.55
2023-01-21T07:03:21.624Z,27.80
2023-01-21T07:05:41.704Z,32.80
2023-01-21T07:08:01.400Z,27.35
2023-01-21T07:10:24.558Z,30.05
2023-01-21T07:15:04.363Z,31.98
2023-01-21T07:17:23.873Z,33.72
2023-01-21T07:19:43.454Z,32.70
2023-01-21T07:22:03.639Z,33.88
2023-01-21T07:24:23.518Z,31.40
2023-01-21T07:26:43.243Z,30.63
2023-01-21T07:29:06.637Z,30.00
2023-01-21T07:33:46.557Z,31.25
2023-01-21T07:36:07.351Z,32.95
2023-01-21T07:38:27.221Z,29.52
2023-01-21T07:40:50.593Z,30.52
2023-01-21T07:43:10.382Z,26.23
2023-01-21T07:45:29.963Z,30.30
2023-01-21T07:47:49.716Z,29.30
2023-01-21T07:50:10.430Z,31.33
2023-01-21T07:52:31.177Z,30.67
2023-01-21T07:54:50.745Z,31.10
2023-01-21T07:57:10.723Z,31.90
2023-01-21T07:59:30.409Z,31.92
2023-01-21T08:01:50.639Z,31.50
2023-01-21T08:04:10.651Z,30.17
2023-01-21T08:06:30.334Z,30.65
2023-01-21T08:08:50.157Z,30.13
2023-01-21T08:11:11.283Z,31.83
2023-01-21T08:13:30.929Z,30.80
2023-01-21T08:15:52.575Z,30.83
2023-01-21T08:18:12.265Z,34.63
2023-01-21T08:20:32.324Z,31.17
2023-01-21T08:22:51.957Z,28.70
2023-01-21T08:25:12.509Z,31.10
2023-01-21T08:27:32.859Z,33.45
2023-01-21T08:29:52.769Z,32.22
2023-01-21T08:32:13.103Z,31.02
2023-01-21T08:34:33.547Z,32.15
2023-01-21T08:36:53.815Z,34.15
2023-01-21T08:39:15.009Z,34.75
2023-01-21T08:41:34.913Z,33.33
2023-01-21T08:43:54.586Z,31.15
2023-01-21T08:46:14.697Z,30.02
2023-01-21T08:48:36.551Z,32.35
2023-01-21T08:51:00.068Z,31.00
2023-01-21T08:53:20.913Z,28.55
2023-01-21T08:55:40.977Z,29.52
2023-01-21T08:58:01.562Z,34.40
2023-01-21T09:00:23.291Z,34.15
2023-01-21T09:02:43.573Z,34.50
2023-01-21T09:05:04.061Z,31.85
2023-01-21T09:07:25.016Z,31.35
2023-01-21T09:09:44.849Z,31.33
2023-01-21T09:12:06.286Z,29.73
2023-01-21T09:14:26.602Z,32.15
2023-01-21T09:16:50.436Z,30.52
2023-01-21T09:19:09.964Z,42.58
2023-01-21T09:21:29.675Z,34.85
2023-01-21T09:23:49.933Z,29.55
2023-01-21T09:26:13.523Z,27.63
2023-01-21T09:31:04.167Z,31.00
2023-01-21T09:33:24.857Z,31.65
2023-01-21T09:35:44.930Z,36.13
2023-01-21T09:38:04.816Z,31.23
2023-01-21T09:40:24.863Z,32.17
2023-01-21T09:42:46.825Z,30.48
2023-01-21T09:45:14.151Z,33.10
2023-01-21T09:47:40.053Z,32.97
2023-01-21T09:50:19.539Z,30.05
2023-01-21T09:52:40.410Z,27.40
2023-01-21T09:55:01.725Z,14.38
2023-01-21T09:57:43.212Z,13.93
2023-01-21T10:00:15.945Z,24.13
2023-01-21T10:02:47.838Z,20.23
2023-01-21T10:05:26.084Z,16.95
2023-01-21T10:08:08.323Z,15.18
2023-01-21T10:10:36.752Z,20.95
2023-01-21T10:13:15.178Z,15.88
2023-01-21T10:15:44.805Z,10.98
2023-01-21T10:18:12.330Z,17.52
2023-01-21T10:20:44.350Z,18.48
2023-01-21T10:23:14.068Z,21.50
2023-01-21T10:25:36.364Z,18.45
2023-01-21T10:28:03.404Z,10.82
2023-01-21T10:30:26.037Z,12.32
2023-01-21T10:32:49.549Z,21.38
2023-01-21T10:35:20.258Z,16.25
2023-01-21T10:37:51.740Z,14.45
2023-01-21T10:40:41.048Z,14.90
2023-01-21T10:43:26.825Z,12.80
2023-01-21T10:46:16.619Z,15.48
2023-01-21T10:48:45.678Z,11.15
2023-01-21T10:51:21.340Z,10.98
2023-01-21T10:53:55.851Z,9.52
2023-01-21T10:56:49.288Z,9.15
2023-01-21T10:59:13.651Z,8.15
2023-01-21T11:01:38.401Z,8.50
2023-01-21T11:04:04.283Z,7.80
2023-01-21T11:06:24.794Z,8.45
2023-01-21T11:08:49.464Z,8.23
2023-01-21T11:11:11.081Z,7.00
2023-01-21T11:13:31.664Z,9.48
2023-01-21T11:15:54.541Z,11.38
2023-01-21T11:18:31.418Z,8.70
2023-01-21T11:20:54.698Z,11.63
2023-01-21T11:23:29.667Z,10.77
2023-01-21T11:25:49.689Z,12.38
2023-01-21T11:28:42.110Z,10.32
2023-01-21T11:31:07.423Z,10.70
2023-01-21T11:33:27.365Z,11.07
2023-01-21T11:35:47.960Z,11.15
2023-01-21T11:38:22.227Z,11.50
2023-01-21T11:40:42.350Z,9.02
2023-01-21T11:43:01.927Z,13.35
2023-01-21T11:45:33.154Z,17.08
2023-01-21T11:47:53.714Z,14.65
2023-01-21T11:50:38.168Z,19.23
2023-01-21T11:53:07.278Z,16.10
2023-01-21T11:55:28.939Z,18.08
2023-01-21T11:57:51.902Z,19.70
2023-01-21T12:00:19.077Z,24.38
2023-01-21T12:02:43.775Z,22.50
2023-01-21T12:05:29.904Z,11.93
2023-01-21T12:07:51.699Z,18.27
2023-01-21T12:10:11.491Z,14.73
2023-01-21T12:12:46.466Z,10.25
2023-01-21T12:15:23.305Z,10.00
2023-01-21T12:18:15.123Z,8.93
2023-01-21T12:20:51.036Z,9.93
2023-01-21T12:23:22.879Z,9.18
2023-01-21T12:26:14.762Z,10.40
2023-01-21T12:31:42.170Z,17.67
2023-01-21T12:34:15.961Z,22.98
2023-01-21T12:36:49.582Z,17.55
2023-01-21T12:39:24.305Z,11.57
2023-01-21T12:41:51.164Z,13.88
2023-01-21T12:44:21.816Z,25.83
2023-01-21T12:46:47.218Z,27.38
2023-01-21T12:49:45.451Z,23.13
2023-01-21T12:52:19.786Z,28.08
2023-01-21T12:54:59.553Z,40.40
2023-01-21T12:57:38.943Z,35.08
2023-01-21T13:00:23.319Z,31.20
2023-01-21T13:03:20.491Z,33.17
2023-01-21T13:05:47.088Z,30.38
2023-01-21T13:08:26.097Z,27.95
2023-01-21T13:10:52.747Z,28.65
2023-01-21T13:13:30.194Z,31.00
2023-01-21T13:15:55.992Z,28.55
2023-01-21T13:18:22.505Z,25.52
2023-01-21T13:20:52.106Z,22.15
2023-01-21T13:23:36.160Z,13.15
2023-01-21T13:26:14.761Z,13.70
2023-01-21T13:29:00.494Z,12.10
2023-01-21T13:31:51.066Z,13.98
2023-01-21T13:34:16.689Z,12.65
2023-01-21T13:36:39.750Z,10.13
2023-01-21T13:38:59.820Z,12.73
2023-01-21T13:41:37.373Z,7.63
2023-01-21T13:44:08.429Z,8.75
2023-01-21T13:46:46.490Z,5.80
2023-01-21T13:49:15.579Z,9.80
2023-01-21T13:51:47.150Z,8.27
2023-01-21T13:54:17.284Z,8.55
2023-01-21T13:56:49.485Z,9.93
2023-01-21T13:59:20.768Z,8.32
2023-01-21T14:01:51.747Z,11.88
2023-01-21T14:04:40.565Z,9.43
2023-01-21T14:07:03.152Z,9.18
2023-01-21T14:09:30.242Z,7.70
2023-01-21T14:11:57.425Z,15.10
2023-01-21T14:14:54.310Z,16.35
2023-01-21T14:17:38.043Z,13.75
2023-01-21T14:20:03.661Z,15.70
2023-01-21T14:22:33.865Z,6.20
2023-01-21T14:25:20.865Z,10.35
2023-01-21T14:27:55.895Z,10.30
2023-01-21T14:30:25.168Z,10.95
2023-01-21T14:32:54.770Z,7.65
2023-01-21T14:35:32.180Z,15.07
2023-01-21T14:38:05.746Z,12.52
2023-01-21T14:40:29.967Z,7.97
2023-01-21T14:42:51.347Z,7.95
2023-01-21T14:45:13.031Z,7.32
2023-01-21T14:47:38.945Z,11.43
2023-01-21T14:49:59.360Z,15.05
2023-01-21T14:52:27.139Z,13.30
2023-01-21T14:54:48.411Z,9.15
2023-01-21T14:57:32.092Z,14.45
2023-01-21T15:02:28.999Z,7.22
2023-01-21T15:05:26.796Z,8.27
2023-01-21T15:07:50.159Z,8.60
2023-01-21T15:10:29.927Z,8.52
2023-01-21T15:12:59.051Z,19.80
2023-01-21T15:16:03.553Z,15.73
2023-01-21T15:20:46.409Z,10.02
2023-01-21T15:23:21.433Z,16.55
2023-01-21T15:26:07.123Z,10.32
2023-01-21T15:28:55.119Z,10.05
2023-01-21T15:31:22.761Z,14.02
2023-01-21T15:33:49.906Z,8.18
2023-01-21T15:36:24.162Z,12.02
2023-01-21T15:38:44.015Z,14.00
2023-01-21T15:41:38.451Z,16.25
2023-01-21T15:44:20.011Z,10.35
2023-01-21T15:46:55.919Z,11.15
2023-01-21T15:49:29.976Z,9.05
2023-01-21T15:52:02.294Z,6.90
2023-01-21T15:54:27.909Z,14.13
2023-01-21T15:57:12.897Z,10.63
2023-01-21T15:59:46.388Z,12.98
2023-01-21T16:02:24.055Z,13.10
2023-01-21T16:05:01.417Z,16.83
2023-01-21T16:07:45.189Z,20.00
2023-01-21T16:13:14.401Z,12.18
2023-01-21T16:15:47.297Z,13.85
2023-01-21T16:18:10.612Z,24.17
2023-01-21T16:20:32.514Z,10.77
2023-01-21T16:22:55.601Z,8.07
2023-01-21T16:25:19.680Z,10.60
2023-01-21T16:27:48.357Z,11.05
2023-01-21T16:30:14.040Z,11.98
2023-01-21T16:32:36.313Z,11.25
2023-01-21T16:34:56.323Z,8.93
2023-01-21T16:37:23.076Z,7.15
2023-01-21T16:39:43.647Z,10.60
2023-01-21T16:42:05.612Z,8.57
2023-01-21T16:44:25.390Z,9.73
2023-01-21T16:46:45.587Z,17.02
2023-01-21T16:49:16.475Z,10.52
2023-01-21T16:51:40.477Z,13.68
2023-01-21T16:54:18.742Z,14.77
2023-01-21T16:56:47.372Z,13.88
2023-01-21T16:59:18.484Z,12.70
2023-01-21T17:01:38.714Z,9.30
2023-01-21T17:04:00.780Z,12.13
2023-01-21T17:06:26.646Z,12.07
2023-01-21T17:09:01.219Z,9.63
2023-01-21T17:11:22.132Z,10.45
2023-01-21T17:13:43.301Z,9.88
2023-01-21T17:16:03.728Z,10.07
2023-01-21T17:18:36.534Z,10.88
2023-01-21T17:21:16.125Z,13.90
2023-01-21T17:23:44.742Z,10.55
2023-01-21T17:26:19.491Z,14.60
2023-01-21T17:28:59.074Z,12.90
2023-01-21T17:31:34.239Z,11.73
2023-01-21T17:34:17.409Z,13.40
2023-01-21T17:36:39.096Z,12.40
2023-01-21T17:38:59.651Z,15.48
2023-01-21T17:41:31.752Z,19.42
2023-01-21T17:43:54.888Z,19.70
2023-01-21T17:46:15.400Z,20.77
2023-01-21T17:48:39.156Z,25.80
2023-01-21T17:51:11.321Z,12.00
2023-01-21T17:53:31.574Z,13.80
2023-01-21T17:55:58.099Z,11.05
2023-01-21T17:58:41.261Z,11.63
2023-01-21T18:01:03.549Z,14.70
2023-01-21T18:03:23.444Z,14.97
2023-01-21T18:05:43.034Z,11.77
2023-01-21T18:08:10.980Z,12.15
2023-01-21T18:10:30.914Z,12.52
2023-01-21T18:12:51.019Z,14.27
2023-01-21T18:15:15.217Z,18.00
2023-01-21T18:17:36.944Z,28.35
2023-01-21T18:19:58.095Z,27.05
2023-01-21T18:22:27.445Z,29.88
2023-01-21T18:24:47.366Z,22.67
2023-01-21T18:27:10.849Z,16.25
2023-01-21T18:31:51.576Z,13.40
2023-01-21T18:34:11.775Z,12.15
2023-01-21T18:36:31.938Z,10.90
2023-01-21T18:38:51.771Z,12.00
2023-01-21T18:41:12.772Z,11.35
2023-01-21T18:43:32.388Z,14.07
2023-01-21T18:45:54.123Z,15.68
2023-01-21T18:48:15.634Z,13.95
2023-01-21T18:50:35.533Z,15.05
2023-01-21T18:52:55.448Z,17.15
2023-01-21T18:55:17.335Z,13.90
2023-01-21T18:57:37.924Z,15.52
2023-01-21T18:59:59.503Z,15.40
2023-01-21T19:02:20.418Z,15.38
2023-01-21T19:04:40.072Z,16.17
2023-01-21T19:07:00.450Z,14.02
2023-01-21T19:09:24.484Z,11.25
2023-01-21T19:11:44.380Z,10.93
2023-01-21T19:14:04.188Z,10.20
2023-01-21T19:16:24.193Z,12.90
2023-01-21T19:18:44.618Z,16.70
2023-01-21T19:21:04.529Z,14.82
2023-01-21T19:23:24.442Z,13.30
2023-01-21T19:25:51.840Z,12.18
2023-01-21T19:28:12.144Z,12.13
2023-01-21T19:30:32.495Z,13.15
2023-01-21T19:32:54.150Z,12.88
2023-01-21T19:35:16.071Z,15.20
2023-01-21T19:37:38.110Z,10.90
2023-01-21T19:39:58.052Z,10.07
2023-01-21T19:42:17.633Z,20.92
2023-01-21T19:44:40.481Z,21.35
2023-01-21T19:47:01.188Z,13.30
2023-01-21T19:49:20.857Z,11.68
2023-01-21T19:51:41.069Z,10.75
2023-01-21T19:54:01.259Z,11.65
2023-01-21T19:56:23.779Z,21.35
2023-01-21T19:58:43.556Z,15.65
2023-01-21T20:01:03.317Z,17.40
2023-01-21T20:03:25.343Z,34.92
2023-01-21T20:05:47.542Z,22.90
2023-01-21T20:08:18.752Z,19.77
2023-01-21T20:10:38.629Z,19.40
2023-01-21T20:12:58.900Z,16.95
2023-01-21T20:15:22.940Z,19.92
2023-01-21T20:17:46.109Z,25.25
2023-01-21T20:20:24.121Z,12.32
2023-01-21T20:22:44.719Z,9.90
2023-01-21T20:25:04.939Z,22.40
2023-01-21T20:27:24.935Z,25.25
2023-01-21T20:29:55.680Z,13.48
2023-01-21T20:32:15.616Z,13.73
2023-01-21T20:34:36.691Z,10.55
2023-01-21T20:36:56.866Z,10.70
2023-01-21T20:39:16.843Z,11.73
2023-01-21T20:41:38.342Z,9.00
2023-01-21T20:43:58.271Z,10.90
2023-01-21T20:46:23.515Z,9.35
2023-01-21T20:48:44.237Z,9.18
2023-01-21T20:51:04.535Z,19.17
2023-01-21T20:53:24.796Z,14.75
2023-01-21T20:55:49.721Z,13.10
2023-01-21T20:58:13.039Z,12.68
2023-01-21T21:02:56.990Z,26.63
2023-01-21T21:05:17.967Z,18.60
2023-01-21T21:07:37.975Z,22.50
2023-01-21T21:09:59.718Z,21.48
2023-01-21T21:12:19.867Z,14.65
2023-01-21T21:14:39.621Z,16.63
2023-01-21T21:16:59.385Z,16.98
2023-01-21T21:19:19.583Z,15.43
2023-01-21T21:21:39.606Z,17.70
2023-01-21T21:23:59.329Z,16.05
2023-01-21T21:26:28.669Z,14.38
2023-01-21T21:28:50.091Z,14.82
2023-01-21T21:31:13.370Z,11.45
2023-01-21T21:33:33.525Z,10.65
2023-01-21T21:35:55.007Z,12.60
2023-01-21T21:38:17.841Z,12.25
2023-01-21T21:40:37.753Z,14.60
2023-01-21T21:43:16.597Z,13.27
2023-01-21T21:45:40.171Z,23.88
2023-01-21T21:51:10.494Z,13.45
2023-01-21T22:35:06.327Z,15.30
2023-01-21T22:37:25.985Z,9.77
2023-01-21T22:39:45.516Z,10.63
2023-01-21T22:42:05.270Z,11.90
2023-01-21T22:44:25.797Z,11.35
2023-01-21T22:46:47.174Z,10.15
2023-01-21T22:49:07.129Z,9.27
2023-01-21T22:51:27.549Z,6.57
2023-01-21T22:53:49.147Z,9.95
2023-01-21T22:56:11.631Z,13.20
2023-01-21T22:58:33.986Z,11.43
2023-01-21T23:00:54.514Z,14.03
2023-01-21T23:03:14.641Z,13.32
2023-01-21T23:05:35.321Z,13.23
2023-01-21T23:07:55.109Z,13.55
2023-01-21T23:10:15.151Z,10.10
2023-01-21T23:12:35.372Z,9.82
2023-01-21T23:14:55.207Z,6.75
2023-01-21T23:17:16.079Z,8.05
2023-01-21T23:19:35.887Z,6.65
2023-01-21T23:21:55.725Z,8.77
2023-01-21T23:24:15.707Z,9.40
2023-01-21T23:26:38.914Z,8.70
2023-01-21T23:31:18.739Z,7.00
2023-01-21T23:33:41.835Z,6.90
2023-01-21T23:36:02.414Z,7.50
2023-01-21T23:38:22.581Z,6.15
2023-01-21T23:40:42.528Z,6.25
2023-01-21T23:43:02.488Z,6.30
2023-01-21T23:45:22.572Z,5.78
2023-01-21T23:47:42.562Z,6.40
2023-01-21T23:50:07.843Z,5.88
2023-01-21T23:52:28.060Z,5.55
2023-01-21T23:54:48.260Z,9.30
2023-01-21T23:57:10.686Z,7.53
2023-01-21T23:59:30.864Z,7.07
